Time;durP1;ratioP1;P1;durP2;ratioP2;P2;SDS_P1;SDS_P2;PMS_P1;PMS_P2;Temp;Humidity;BMP_temperature;BMP_pressure;BME280_temperature;BME280_humidity;BME280_pressure;Samples;Min_cycle;Max_cycle;Signal;HPM_P1;HPM_P2
2022/05/01 00:00:13;;;;;;;5.07;4.20;;;;;;;6.04;74.63;96905.56;4979518;28;20492;-66
2022/05/01 00:02:38;;;;;;;3.90;3.38;;;;;;;6.00;75.47;96905.59;4996781;28;20018;-63
2022/05/01 00:05:05;;;;;;;4.57;4.10;;;;;;;5.90;75.78;96903.13;4996785;28;20037;-65
2022/05/01 00:07:30;;;;;;;6.28;4.32;;;;;;;5.92;75.60;96905.69;4996757;28;20030;-63
2022/05/01 00:09:56;;;;;;;6.50;4.10;;;;;;;5.88;76.13;96904.91;4996575;28;20014;-62
2022/05/01 00:12:22;;;;;;;5.32;4.65;;;;;;;5.88;76.09;96911.81;4996665;28;20055;-63
2022/05/01 00:14:48;;;;;;;6.10;4.57;;;;;;;5.87;76.64;96902.31;4996501;28;20058;-63
2022/05/01 00:17:14;;;;;;;7.07;5.15;;;;;;;5.84;77.22;96904.97;4996574;28;20108;-65
2022/05/01 00:19:40;;;;;;;10.70;5.82;;;;;;;5.85;77.20;96907.53;4996524;28;20031;-62
2022/05/01 00:22:05;;;;;;;30.90;22.25;;;;;;;5.85;77.43;96906.66;4996344;28;20031;-65
2022/05/01 00:24:31;;;;;;;12.10;9.73;;;;;;;5.84;77.35;96908.41;4996409;28;20018;-63
2022/05/01 00:26:57;;;;;;;6.35;5.72;;;;;;;5.86;77.87;96919.63;4996594;28;20381;-65
2022/05/01 00:29:24;;;;;;;7.25;4.70;;;;;;;5.90;76.67;96917.88;4996292;28;20018;-63
2022/05/01 00:31:50;;;;;;;8.65;4.00;;;;;;;5.83;77.00;96914.47;4996274;28;20381;-65
2022/05/01 00:36:59;;;;;;;8.45;4.22;;;;;;;5.78;76.90;96916.28;4996498;28;20057;-63
2022/05/01 00:39:25;;;;;;;6.13;3.03;;;;;;;5.82;76.89;96924.00;4996193;28;20492;-63
2022/05/01 00:41:50;;;;;;;4.63;3.60;;;;;;;5.80;76.37;96920.56;4995921;28;20127;-65
2022/05/01 00:44:21;;;;;;;5.85;3.70;;;;;;;5.74;76.84;96925.84;4978733;28;20358;-63
2022/05/01 00:46:50;;;;;;;4.55;3.50;;;;;;;5.72;77.41;96926.75;4996067;28;20030;-65
2022/05/01 00:49:22;;;;;;;3.72;3.25;;;;;;;5.78;77.51;96930.09;4996053;28;20115;-63
2022/05/01 00:51:49;;;;;;;4.72;3.65;;;;;;;5.71;77.00;96920.69;4995941;28;20465;-62
2022/05/01 00:54:17;;;;;;;5.57;3.60;;;;;;;5.74;77.14;96922.38;4995905;28;20117;-63
2022/05/01 00:56:47;;;;;;;3.80;3.28;;;;;;;5.74;77.21;96922.38;4995807;28;20023;-65
2022/05/01 00:59:13;;;;;;;4.72;3.15;;;;;;;5.66;77.22;96925.09;4995817;28;20109;-65
2022/05/01 01:01:42;;;;;;;4.20;3.70;;;;;;;5.59;77.56;96920.81;4995669;28;20429;-64
2022/05/01 01:04:09;;;;;;;7.75;3.90;;;;;;;5.59;78.19;96924.28;4995705;28;20022;-63
2022/05/01 01:06:35;;;;;;;4.45;3.42;;;;;;;5.60;78.17;96925.16;4996014;28;20109;-62
2022/05/01 01:09:00;;;;;;;5.20;3.25;;;;;;;5.64;77.38;96919.03;4995903;28;20113;-64
2022/05/01 01:11:26;;;;;;;3.65;3.10;;;;;;;5.66;76.87;96909.50;4995465;28;20026;-63
2022/05/01 01:13:52;;;;;;;3.90;3.40;;;;;;;5.70;76.82;96918.97;4995670;28;20029;-66
2022/05/01 01:16:17;;;;;;;3.78;3.47;;;;;;;5.66;76.66;96918.13;4995537;28;20026;-64
2022/05/01 01:18:43;;;;;;;5.22;3.30;;;;;;;5.62;76.83;96932.03;4995354;28;20023;-64
2022/05/01 01:21:10;;;;;;;4.50;3.30;;;;;;;5.56;77.02;96932.09;4995348;28;20018;-65
2022/05/01 01:23:37;;;;;;;3.92;3.50;;;;;;;5.55;76.26;96935.59;4995266;28;20023;-63
2022/05/01 01:26:07;;;;;;;4.13;3.13;;;;;;;5.56;76.28;96932.09;4995126;28;20023;-66
2022/05/01 01:28:38;;;;;;;4.35;3.33;;;;;;;5.50;76.19;96932.16;4995211;28;20102;-65
2022/05/01 01:33:54;;;;;;;4.47;3.30;;;;;;;5.42;76.24;96935.72;4995489;28;20037;-63
2022/05/01 01:36:22;;;;;;;5.50;2.40;;;;;;;5.44;75.92;96928.78;4995140;28;20034;-64
2022/05/01 01:38:49;;;;;;;11.90;4.13;;;;;;;5.38;75.88;96933.16;4994982;28;20299;-64
2022/05/01 01:41:20;;;;;;;7.10;4.15;;;;;;;5.31;76.42;96933.25;4994829;28;20042;-64
2022/05/01 01:43:47;;;;;;;5.28;3.38;;;;;;;5.31;76.42;96937.59;4995047;28;20037;-63
2022/05/01 01:46:13;;;;;;;4.28;3.03;;;;;;;5.24;76.32;96943.72;4994247;28;20030;-63
2022/05/01 01:48:38;;;;;;;5.93;3.67;;;;;;;5.19;76.89;96941.16;4994825;28;20023;-65
2022/05/01 01:51:06;;;;;;;3.40;2.83;;;;;;;5.16;77.51;96936.88;4994756;28;20022;-66
2022/05/01 01:53:35;;;;;;;4.38;3.50;;;;;;;5.15;77.18;96931.69;4994776;28;20080;-65
2022/05/01 01:56:02;;;;;;;3.50;2.88;;;;;;;5.07;77.55;96918.81;4994694;28;20389;-62
2022/05/01 01:58:29;;;;;;;3.47;2.92;;;;;;;5.05;77.77;96924.00;4994600;28;20025;-65
2022/05/01 02:00:55;;;;;;;4.28;2.80;;;;;;;4.99;78.31;96910.22;4994719;28;20018;-64
2022/05/01 02:03:22;;;;;;;5.60;3.92;;;;;;;4.97;78.46;96909.41;4994592;28;20053;-63
2022/05/01 02:05:48;;;;;;;4.97;3.38;;;;;;;4.97;78.61;96899.84;4994493;28;20049;-65
2022/05/01 02:08:16;;;;;;;4.60;3.70;;;;;;;5.01;78.46;96904.16;4994429;28;20022;-66
2022/05/01 02:10:44;;;;;;;5.85;3.70;;;;;;;4.99;78.86;96894.66;4994550;28;20030;-63
2022/05/01 02:13:10;;;;;;;3.88;3.25;;;;;;;4.92;79.42;96888.69;4994329;28;20031;-63
2022/05/01 02:15:37;;;;;;;4.80;3.45;;;;;;;4.91;79.87;96890.41;4994335;28;20503;-65
2022/05/01 02:18:04;;;;;;;12.15;3.80;;;;;;;4.95;79.61;96885.19;4994239;28;20030;-66
2022/05/01 02:23:19;;;;;;;6.78;4.03;;;;;;;4.93;80.64;96896.47;4994676;28;20185;-66
2022/05/01 02:25:44;;;;;;;3.60;3.00;;;;;;;4.89;80.18;96893.91;4994217;28;20100;-65
2022/05/01 02:28:13;;;;;;;4.45;3.63;;;;;;;4.89;79.92;96888.72;4994273;28;20026;-63
2022/05/01 02:30:39;;;;;;;3.72;3.08;;;;;;;4.96;79.61;96892.13;4994117;28;20045;-65
2022/05/01 02:33:06;;;;;;;4.43;3.35;;;;;;;4.99;79.34;96902.44;4993945;28;20489;-62
2022/05/01 02:35:32;;;;;;;3.50;3.20;;;;;;;5.01;79.11;96896.38;4994013;28;20101;-63
2022/05/01 02:37:59;;;;;;;6.50;3.58;;;;;;;5.04;78.15;96892.91;4976838;28;20050;-65
2022/05/01 02:40:25;;;;;;;3.58;3.20;;;;;;;4.97;78.16;96880.88;4994097;28;20033;-64
2022/05/01 02:42:51;;;;;;;5.22;3.85;;;;;;;4.91;78.60;96868.84;4993724;28;20042;-64
2022/05/01 02:45:17;;;;;;;6.20;3.88;;;;;;;4.90;79.17;96867.97;4993870;28;20037;-66
2022/05/01 02:47:43;;;;;;;9.15;3.50;;;;;;;4.92;79.05;96875.72;4993929;28;20388;-65
2022/05/01 02:50:09;;;;;;;4.68;3.67;;;;;;;4.89;79.30;96876.63;4993872;28;20022;-65
2022/05/01 02:52:34;;;;;;;7.90;3.58;;;;;;;4.92;79.36;96886.97;4993791;28;20062;-65
2022/05/01 02:55:00;;;;;;;7.50;3.42;;;;;;;4.95;79.27;96892.97;4993843;28;20045;-64
2022/05/01 02:57:25;;;;;;;4.70;3.50;;;;;;;4.96;78.67;96892.13;4993273;28;20027;-64
2022/05/01 02:59:51;;;;;;;5.85;3.45;;;;;;;4.94;78.38;96897.31;4993328;28;20088;-64
2022/05/01 03:02:17;;;;;;;4.53;3.80;;;;;;;4.91;78.49;96886.97;4993663;28;20041;-65
2022/05/01 03:04:45;;;;;;;4.30;3.90;;;;;;;4.99;78.67;96884.28;4993642;28;20117;-64
2022/05/01 03:07:12;;;;;;;6.68;3.45;;;;;;;5.05;78.26;96886.81;4993629;28;20023;-64
2022/05/01 03:09:38;;;;;;;5.63;4.38;;;;;;;5.14;80.25;96884.13;4993696;28;20022;-66
2022/05/01 03:12:05;;;;;;;5.05;4.32;;;;;;;5.15;79.71;96887.59;4993607;28;20496;-63
2022/05/01 03:14:31;;;;;;;5.80;4.45;;;;;;;5.21;79.86;96886.69;4993623;28;20023;-66
2022/05/01 03:16:57;;;;;;;6.30;4.80;;;;;;;5.16;80.05;96868.56;4993634;28;20381;-64
2022/05/01 03:22:13;;;;;;;5.38;4.15;;;;;;;5.23;79.03;96878.00;4993554;28;20040;-65
2022/05/01 03:24:40;;;;;;;5.68;4.25;;;;;;;5.19;79.52;96886.69;4993439;28;20077;-66
2022/05/01 03:27:07;;;;;;;5.63;4.57;;;;;;;5.16;79.72;96886.72;4993494;28;20141;-64
2022/05/01 03:29:33;;;;;;;5.50;4.72;;;;;;;5.14;79.86;96884.13;4993551;28;20384;-63
2022/05/01 03:32:00;;;;;;;5.38;4.15;;;;;;;5.25;79.97;96889.22;4993516;28;20023;-65
2022/05/01 03:34:26;;;;;;;5.13;4.30;;;;;;;5.30;79.11;96889.19;4993398;28;20046;-64
2022/05/01 03:36:55;;;;;;;5.70;4.25;;;;;;;5.31;78.85;96890.88;4993406;28;20458;-67
2022/05/01 03:39:21;;;;;;;6.35;4.18;;;;;;;5.33;78.42;96891.72;4993296;28;20511;-63
2022/05/01 03:41:47;;;;;;;5.07;4.43;;;;;;;5.34;78.41;96897.75;4993075;28;20054;-66
2022/05/01 03:44:12;;;;;;;6.35;4.03;;;;;;;5.35;78.42;96896.88;4993158;28;20122;-64
2022/05/01 03:46:41;;;;;;;4.20;3.80;;;;;;;5.41;78.16;96896.81;4993329;28;20388;-66
2022/05/01 03:49:07;;;;;;;4.85;3.75;;;;;;;5.44;78.44;96905.44;4993337;28;20527;-64
2022/05/01 03:51:33;;;;;;;4.60;3.65;;;;;;;5.62;78.68;96907.81;4993355;28;20014;-65
2022/05/01 03:54:02;;;;;;;6.40;3.97;;;;;;;6.17;77.81;96898.47;4993276;28;20384;-65
2022/05/01 03:56:32;;;;;;;4.35;3.20;;;;;;;6.80;75.15;96894.88;4975789;28;20054;-66
2022/05/01 03:58:58;;;;;;;;;;;;;;;7.32;73.13;96908.69;4993619;28;20030;-66
2022/05/01 04:01:25;;;;;;;3.40;3.10;;;;;;;7.84;71.49;96907.66;4993200;28;19914;-64
2022/05/01 04:03:51;;;;;;;3.25;2.55;;;;;;;8.28;69.03;96901.53;4993183;28;20102;-65
2022/05/01 04:06:17;;;;;;;4.68;2.88;;;;;;;8.63;67.71;96899.84;4993041;28;20023;-66
2022/05/01 04:08:43;;;;;;;3.08;2.70;;;;;;;9.00;66.10;96902.44;4992658;28;20049;-65
2022/05/01 04:11:08;;;;;;;2.90;2.60;;;;;;;9.34;65.34;96910.19;4996561;28;20113;-66
2022/05/01 04:13:35;;;;;;;2.70;2.22;;;;;;;9.61;63.87;96915.56;4996780;28;20492;-65
2022/05/01 04:16:01;;;;;;;3.60;2.78;;;;;;;9.96;64.43;96911.97;4996587;28;20481;-63
2022/05/01 04:18:27;;;;;;;3.53;2.83;;;;;;;10.40;63.49;96906.31;4996672;28;20433;-64
2022/05/01 04:20:53;;;;;;;3.67;2.80;;;;;;;10.84;62.42;96910.19;4996518;28;20057;-65
2022/05/01 04:23:19;;;;;;;2.78;2.40;;;;;;;11.28;61.32;96904.31;4996528;28;20041;-66
2022/05/01 04:25:46;;;;;;;2.83;2.20;;;;;;;11.60;59.74;96909.34;4996372;28;20037;-65
2022/05/01 04:28:12;;;;;;;2.67;2.22;;;;;;;11.90;58.96;96908.25;4996492;28;20424;-62
2022/05/01 04:30:39;;;;;;;4.25;2.70;;;;;;;12.26;58.60;96911.25;4996457;28;20050;-65
2022/05/01 04:33:13;;;;;;;2.72;2.25;;;;;;;12.65;58.63;96911.53;4996358;28;20077;-64
2022/05/01 04:35:44;;;;;;;3.20;2.53;;;;;;;13.05;57.73;96921.28;4996392;28;20435;-65
2022/05/01 04:38:15;;;;;;;5.28;2.85;;;;;;;13.42;57.02;96918.88;4996416;28;20026;-64
2022/05/01 04:40:45;;;;;;;6.13;1.80;;;;;;;13.70;56.48;96920.31;4996170;28;20018;-64
2022/05/01 04:43:17;;;;;;;3.08;2.42;;;;;;;13.99;56.20;96912.88;4996234;28;20034;-63
2022/05/01 04:45:46;;;;;;;2.33;2.08;;;;;;;14.33;55.18;96911.28;4995951;28;20088;-63
2022/05/01 04:48:13;;;;;;;2.38;2.17;;;;;;;14.64;55.13;96915.09;4995838;28;20038;-64
2022/05/01 04:50:40;;;;;;;2.65;2.30;;;;;;;14.95;54.88;96915.41;4996053;28;20045;-64
2022/05/01 04:53:09;;;;;;;4.38;2.38;;;;;;;15.15;54.11;96911.75;4978658;28;20027;-62
2022/05/01 04:55:37;;;;;;;2.83;2.38;;;;;;;15.47;53.97;96910.19;4995838;28;20026;-63
2022/05/01 04:58:04;;;;;;;3.08;2.50;;;;;;;15.87;54.75;96915.16;4995802;28;20045;-64
2022/05/01 05:00:30;;;;;;;4.18;2.35;;;;;;;16.25;53.72;96909.59;4995844;28;20022;-64
2022/05/01 05:02:57;;;;;;;2.33;2.13;;;;;;;16.48;52.36;96914.53;4995773;28;20022;-61
2022/05/01 05:05:26;;;;;;;4.07;2.28;;;;;;;16.77;53.66;96912.88;4995526;28;20034;-62
2022/05/01 05:07:52;;;;;;;4.15;2.28;;;;;;;17.15;51.33;96916.03;4995623;28;20027;-63
2022/05/01 05:10:18;;;;;;;3.63;2.47;;;;;;;17.47;51.29;96907.13;4995642;28;20034;-63
2022/05/01 05:12:47;;;;;;;2.20;2.00;;;;;;;17.67;51.67;96916.53;4995649;28;20023;-63
2022/05/01 05:15:16;;;;;;;3.08;2.30;;;;;;;17.97;52.08;96915.56;4995605;28;20018;-61
2022/05/01 05:17:43;;;;;;;2.60;2.40;;;;;;;18.27;50.50;96919.06;4995505;28;20466;-63
2022/05/01 05:20:13;;;;;;;2.83;2.25;;;;;;;18.55;50.55;96922.59;4995224;28;20057;-62
2022/05/01 05:22:42;;;;;;;2.78;2.15;;;;;;;18.74;50.77;96918.75;4994629;28;20358;-61
2022/05/01 05:25:12;;;;;;;5.20;2.00;;;;;;;18.91;48.68;96912.34;4977832;28;20029;-61
2022/05/01 05:27:39;;;;;;;5.40;2.17;;;;;;;19.04;47.75;96912.38;4995241;28;20041;-61
2022/05/01 05:30:06;;;;;;;2.22;1.98;;;;;;;19.23;47.85;96917.31;4995283;28;20081;-61
2022/05/01 05:32:31;;;;;;;2.58;2.38;;;;;;;19.21;48.19;96921.88;4995138;28;20038;-62
2022/05/01 05:34:58;;;;;;;4.78;2.05;;;;;;;18.83;42.25;96926.09;4995089;28;20026;-62
2022/05/01 05:37:25;;;;;;;2.97;1.80;;;;;;;18.66;40.63;96917.44;4995081;28;20068;-62
2022/05/01 05:39:52;;;;;;;2.25;1.85;;;;;;;18.75;40.75;96918.63;4994967;28;20042;-63
2022/05/01 05:42:18;;;;;;;2.05;1.65;;;;;;;18.50;41.22;96914.09;4960840;28;20055;-62
2022/05/01 05:44:44;;;;;;;3.33;2.17;;;;;;;18.63;40.16;96914.16;4954858;29;20394;-62
2022/05/01 05:47:10;;;;;;;5.20;2.33;;;;;;;18.87;39.97;96916.16;4954980;29;20039;-62
2022/05/01 05:49:39;;;;;;;1.73;1.60;;;;;;;18.95;38.28;96927.09;4956064;29;20031;-61
2022/05/01 05:52:05;;;;;;;3.28;1.52;;;;;;;19.02;38.46;96928.38;4938025;29;20046;-61
2022/05/01 05:54:32;;;;;;;7.35;2.17;;;;;;;19.41;40.64;96925.84;4956139;29;20035;-61
2022/05/01 05:56:59;;;;;;;2.33;1.75;;;;;;;19.30;37.94;96926.56;4955934;29;20106;-62
2022/05/01 05:59:24;;;;;;;2.38;1.88;;;;;;;19.51;39.16;96934.00;4956084;29;20028;-62
2022/05/01 06:01:51;;;;;;;1.65;1.30;;;;;;;19.48;35.71;96930.72;4955895;29;20430;-63
2022/05/01 06:04:16;;;;;;;2.50;1.90;;;;;;;19.25;37.75;96931.34;4955791;29;20389;-62
2022/05/01 06:06:42;;;;;;;2.55;1.67;;;;;;;19.29;36.02;96929.31;4955946;29;20027;-62
2022/05/01 06:09:09;;;;;;;1.88;1.55;;;;;;;19.39;37.25;96932.19;4955814;29;20078;-62
2022/05/01 06:11:35;;;;;;;2.80;1.50;;;;;;;19.54;36.51;96927.66;4955756;29;20023;-63
2022/05/01 06:14:02;;;;;;;2.20;1.95;;;;;;;19.30;35.99;96925.72;4955615;29;20034;-62
2022/05/01 06:16:31;;;;;;;2.03;1.60;;;;;;;19.39;35.17;96927.72;4955581;29;20031;-63
2022/05/01 06:18:59;;;;;;;1.92;1.50;;;;;;;19.37;33.67;96924.34;4955615;29;20019;-61
2022/05/01 06:21:25;;;;;;;2.58;1.58;;;;;;;19.30;34.51;96923.91;4955517;29;20031;-61
2022/05/01 06:23:51;;;;;;;3.70;1.70;;;;;;;19.35;34.80;96928.91;4955496;29;20034;-62
2022/05/01 06:26:17;;;;;;;2.65;1.50;;;;;;;19.53;31.69;96931.25;4955432;29;20046;-62
2022/05/01 06:28:43;;;;;;;3.35;1.77;;;;;;;19.34;34.13;96931.66;4955555;29;20482;-62
2022/05/01 06:31:09;;;;;;;3.03;1.63;;;;;;;19.30;33.40;96925.72;4955390;29;20026;-62
2022/05/01 06:33:36;;;;;;;2.65;1.60;;;;;;;19.40;32.28;96929.44;4955218;28;20039;-62
2022/05/01 06:36:04;;;;;;;2.40;1.50;;;;;;;19.63;31.76;96926.16;4955283;29;20027;-62
2022/05/01 06:38:30;;;;;;;3.38;1.70;;;;;;;19.65;32.99;96932.19;4955338;29;20050;-62
2022/05/01 06:40:56;;;;;;;2.35;1.55;;;;;;;19.13;32.71;96929.50;4959922;28;20023;-62
2022/05/01 06:43:22;;;;;;;2.05;1.73;;;;;;;19.21;34.32;96931.63;4994001;28;20037;-62
2022/05/01 06:45:49;;;;;;;4.13;1.33;;;;;;;19.59;33.78;96927.34;4976343;28;20026;-62
2022/05/01 06:48:15;;;;;;;1.73;1.33;;;;;;;19.57;31.26;96930.09;4993795;28;20709;-61
2022/05/01 06:50:41;;;;;;;1.63;1.48;;;;;;;19.24;31.64;96937.59;4993806;28;20054;-61
2022/05/01 06:53:09;;;;;;;3.97;1.70;;;;;;;19.39;33.71;96934.84;4993738;28;20050;-63
2022/05/01 06:55:35;;;;;;;2.42;1.48;;;;;;;19.60;31.53;96937.84;4993825;28;20270;-62
2022/05/01 06:58:01;;;;;;;1.45;1.30;;;;;;;19.51;31.08;96941.13;4993718;28;20037;-62
2022/05/01 07:00:27;;;;;;;3.25;1.50;;;;;;;18.99;32.04;96941.00;4993624;28;20022;-63
2022/05/01 07:02:54;;;;;;;1.38;1.20;;;;;;;19.15;32.42;96943.50;4993675;28;20022;-61
2022/05/01 07:05:21;;;;;;;1.63;1.35;;;;;;;19.35;34.21;96938.69;4993572;28;20062;-62
2022/05/01 07:07:50;;;;;;;3.25;1.80;;;;;;;19.59;31.85;96935.31;4993669;28;20676;-63
2022/05/01 07:10:18;;;;;;;1.70;1.60;;;;;;;19.64;31.57;96935.81;4993583;28;20105;-63
2022/05/01 07:12:47;;;;;;;1.75;1.45;;;;;;;19.79;28.87;96939.22;4993636;28;20030;-62
2022/05/01 07:15:13;;;;;;;1.85;1.25;;;;;;;19.58;29.18;96937.09;4993566;28;20495;-63
2022/05/01 07:17:39;;;;;;;1.30;1.20;;;;;;;19.12;29.97;96933.97;4993569;28;20432;-62
2022/05/01 07:20:05;;;;;;;1.58;1.48;;;;;;;19.22;30.01;96935.97;4993665;28;20043;-62
2022/05/01 07:22:30;;;;;;;1.33;1.10;;;;;;;19.36;29.56;96935.06;4993435;28;20033;-64
2022/05/01 07:24:57;;;;;;;1.80;1.20;;;;;;;19.91;30.52;96932.22;4993502;28;20026;-63
2022/05/01 07:27:23;;;;;;;3.70;1.83;;;;;;;20.26;28.85;96923.56;4993507;28;20050;-64
2022/05/01 07:29:51;;;;;;;2.17;1.55;;;;;;;19.99;31.88;96929.88;4993515;28;20065;-62
2022/05/01 07:32:17;;;;;;;3.25;1.40;;;;;;;20.04;31.05;96937.53;4993390;28;20162;-64
2022/05/01 07:34:44;;;;;;;3.20;1.15;;;;;;;20.06;30.49;96927.66;4993392;28;20111;-61
2022/05/01 07:37:13;;;;;;;2.63;1.80;;;;;;;20.74;31.86;96927.25;4993318;28;20022;-62
2022/05/01 07:39:45;;;;;;;1.83;1.48;;;;;;;21.16;30.42;96934.84;4993394;28;20029;-64
2022/05/01 07:42:11;;;;;;;1.92;1.23;;;;;;;21.31;27.42;96934.66;4993150;28;20515;-63
2022/05/01 07:44:37;;;;;;;1.67;1.40;;;;;;;21.25;28.61;96935.13;4994580;28;20026;-62
2022/05/01 07:47:03;;;;;;;2.70;1.33;;;;;;;21.13;28.45;96931.56;4979648;28;20022;-62
2022/05/01 07:49:29;;;;;;;1.20;1.10;;;;;;;21.18;28.24;96932.06;4997226;28;20108;-61
2022/05/01 07:51:56;;;;;;;2.75;1.20;;;;;;;21.29;28.72;96936.56;4997036;28;20050;-63
2022/05/01 07:54:23;;;;;;;1.35;1.13;;;;;;;21.21;28.42;96940.66;4997008;28;20090;-61
2022/05/01 07:56:50;;;;;;;4.80;1.38;;;;;;;20.69;28.88;96932.06;4996904;28;20048;-63
2022/05/01 07:59:16;;;;;;;1.35;1.17;;;;;;;20.62;28.55;96934.31;4996945;28;20041;-65
2022/05/01 08:01:52;;;;;;;2.53;1.20;;;;;;;19.97;28.41;96930.94;4996914;28;20473;-64
2022/05/01 08:04:28;;;;;;;1.33;1.20;;;;;;;19.28;28.76;96938.22;4996791;28;20030;-63
2022/05/01 08:06:55;;;;;;;1.50;1.27;;;;;;;18.60;29.98;96933.72;4996825;28;20022;-65
2022/05/01 08:09:22;;;;;;;3.05;1.50;;;;;;;18.42;31.21;96936.63;4996717;28;20026;-63
2022/05/01 08:11:47;;;;;;;3.15;1.60;;;;;;;18.65;30.78;96928.13;4979468;28;20033;-63
2022/05/01 08:14:13;;;;;;;1.70;1.38;;;;;;;19.07;32.18;96928.06;4996664;28;20030;-63
2022/05/01 08:16:40;;;;;;;5.03;1.77;;;;;;;19.45;36.34;96924.66;4996578;28;20022;-63
2022/05/01 08:21:50;;;;;;;2.72;1.63;;;;;;;19.84;34.53;96926.50;4996916;28;20056;-63
2022/05/01 08:24:17;;;;;;;1.50;1.23;;;;;;;19.99;33.17;96918.41;4979015;28;20050;-63
2022/05/01 08:26:47;;;;;;;1.95;1.40;;;;;;;19.90;33.24;96920.72;4996437;28;20592;-63
2022/05/01 08:29:14;;;;;;;3.53;1.40;;;;;;;19.80;31.92;96930.28;4996442;28;20034;-62
2022/05/01 08:31:42;;;;;;;2.33;1.27;;;;;;;19.71;32.74;96923.81;4996343;28;20030;-64
2022/05/01 08:34:12;;;;;;;1.48;1.10;;;;;;;19.37;31.70;96927.00;4996297;28;20093;-62
2022/05/01 08:36:39;;;;;;;2.38;1.80;;;;;;;19.26;30.82;96921.59;4996189;28;20038;-63
2022/05/01 08:39:05;;;;;;;2.10;1.90;;;;;;;19.25;30.73;96919.88;4996186;28;20025;-64
2022/05/01 08:41:33;;;;;;;2.65;1.88;;;;;;;19.16;31.57;96921.34;4995978;28;20085;-64
2022/05/01 08:44:05;;;;;;;2.17;1.63;;;;;;;19.10;33.54;96927.91;4995997;28;20109;-62
2022/05/01 08:46:41;;;;;;;2.17;1.65;;;;;;;19.18;34.36;96924.75;4996194;28;20043;-63
2022/05/01 08:49:09;;;;;;;2.17;1.55;;;;;;;19.25;36.15;96928.69;4996015;28;20448;-63
2022/05/01 08:51:43;;;;;;;2.40;1.60;;;;;;;19.10;32.51;96930.56;4996072;28;20084;-63
2022/05/01 08:54:12;;;;;;;2.08;1.80;;;;;;;19.07;34.15;96933.38;4995882;28;20026;-62
2022/05/01 08:56:43;;;;;;;1.95;1.30;;;;;;;19.07;36.41;96933.38;4994614;28;20417;-62
2022/05/01 08:59:16;;;;;;;2.53;1.67;;;;;;;19.11;35.95;96928.75;4995925;28;20036;-64
2022/05/01 09:01:45;;;;;;;1.27;1.13;;;;;;;19.02;37.22;96928.38;4986877;28;20113;-62
2022/05/01 09:04:15;;;;;;;2.92;1.83;;;;;;;18.98;38.25;96926.88;4984520;28;20023;-64
2022/05/01 09:06:43;;;;;;;6.90;1.85;;;;;;;18.99;36.90;96930.41;4976247;28;20110;-64
2022/05/01 09:09:15;;;;;;;1.90;1.73;;;;;;;18.69;38.29;96930.50;4976219;28;20026;-64
2022/05/01 09:14:27;;;;;;;2.60;1.65;;;;;;;18.40;38.31;96935.03;4976461;28;20111;-64
2022/05/01 09:17:13;;;;;;;4.57;1.83;;;;;;;18.06;39.06;96933.53;4993786;28;20022;-63
2022/05/01 09:19:40;;;;;;;7.85;2.45;;;;;;;17.79;41.21;96930.81;4995488;28;20033;-63
2022/05/01 09:22:06;;;;;;;3.17;1.75;;;;;;;17.75;40.54;96934.56;4974760;28;20022;-62
2022/05/01 09:24:32;;;;;;;3.90;2.10;;;;;;;17.74;40.80;96927.56;4993691;28;20040;-64
2022/05/01 09:26:59;;;;;;;3.60;1.80;;;;;;;17.78;40.61;96915.84;4992284;28;20061;-65
2022/05/01 09:29:36;;;;;;;3.50;1.63;;;;;;;17.83;39.26;96912.94;4995252;28;20037;-63
2022/05/01 09:32:03;;;;;;;3.10;1.92;;;;;;;17.81;41.23;96920.97;4995395;28;20030;-63
2022/05/01 09:34:32;;;;;;;1.90;1.52;;;;;;;17.87;41.07;96914.44;4995169;28;20114;-64
2022/05/01 09:37:03;;;;;;;5.32;1.73;;;;;;;17.86;39.42;96910.94;4995049;28;20019;-64
2022/05/01 09:39:32;;;;;;;3.00;2.10;;;;;;;17.52;38.54;96915.66;4994671;28;20029;-62
2022/05/01 09:42:16;;;;;;;2.20;1.90;;;;;;;17.15;38.91;96918.69;4994702;28;20064;-62
2022/05/01 09:44:43;;;;;;;2.20;1.83;;;;;;;17.08;39.47;96922.63;4994601;28;20030;-64
2022/05/01 09:47:11;;;;;;;2.90;1.60;;;;;;;17.15;41.08;96910.75;4994766;28;20026;-64
2022/05/01 09:49:51;;;;;;;3.92;1.80;;;;;;;17.43;40.30;96907.31;4978044;28;20388;-62
2022/05/01 09:52:19;;;;;;;4.90;2.03;;;;;;;17.61;41.74;96901.03;4994706;28;20062;-64
2022/05/01 09:55:04;;;;;;;6.00;2.08;;;;;;;17.59;39.37;96894.97;4994623;28;20035;-64
2022/05/01 09:57:30;;;;;;;3.50;1.73;;;;;;;17.81;40.36;96903.28;4994696;28;20381;-65
2022/05/01 09:59:56;;;;;;;2.28;1.85;;;;;;;17.64;38.93;96893.75;4994713;28;20034;-63
2022/05/01 10:02:31;;;;;;;3.92;2.10;;;;;;;17.50;38.81;96888.44;4994606;28;20097;-62
2022/05/01 10:05:04;;;;;;;3.33;1.85;;;;;;;17.60;39.71;96883.44;4994284;28;20452;-63
2022/05/01 10:07:38;;;;;;;4.28;1.80;;;;;;;17.94;39.86;96876.91;4994090;28;20027;-64
2022/05/01 10:10:08;;;;;;;2.85;2.00;;;;;;;18.29;38.69;96885.38;4994633;28;20028;-61
2022/05/01 10:12:45;;;;;;;3.35;2.17;;;;;;;18.51;39.60;96886.69;4994556;28;20113;-62
2022/05/01 10:15:11;;;;;;;2.88;1.63;;;;;;;18.67;39.98;96868.81;4994094;28;20066;-64
2022/05/01 10:17:39;;;;;;;2.25;1.77;;;;;;;18.82;42.61;96869.59;4986369;28;20030;-62
2022/05/01 10:20:05;;;;;;;2.42;1.70;;;;;;;19.05;40.71;96869.84;4974843;28;20066;-62
2022/05/01 10:22:32;;;;;;;3.45;1.83;;;;;;;19.09;40.00;96875.00;4974837;28;20030;-63
2022/05/01 10:24:58;;;;;;;2.05;1.77;;;;;;;19.04;38.06;96864.66;4974782;28;20035;-63
2022/05/01 10:27:54;;;;;;;2.38;1.90;;;;;;;18.73;37.68;96859.63;4974703;28;20081;-64
2022/05/01 10:33:28;;;;;;;3.42;1.92;;;;;;;18.44;39.70;96857.06;4991859;28;20397;-62
2022/05/01 10:36:29;;;;;;;2.08;1.58;;;;;;;18.34;39.82;96850.69;4994094;28;20034;-64
2022/05/01 10:39:20;;;;;;;3.92;1.90;;;;;;;18.55;39.87;96848.44;4993965;28;20080;-64
2022/05/01 10:41:47;;;;;;;4.93;2.30;;;;;;;18.72;39.58;96847.31;4992484;28;20042;-64
2022/05/01 10:44:27;;;;;;;4.05;2.50;;;;;;;18.68;40.84;96838.72;4993967;28;20456;-64
2022/05/01 10:46:54;;;;;;;2.95;2.17;;;;;;;18.84;41.30;96831.56;4994031;28;20049;-64
2022/05/01 10:49:39;;;;;;;2.28;2.08;;;;;;;19.09;38.79;96828.13;4993827;28;20424;-62
2022/05/01 10:52:18;;;;;;;4.00;2.67;;;;;;;19.26;38.07;96826.97;4993913;28;20385;-64
2022/05/01 10:55:04;;;;;;;2.70;1.90;;;;;;;19.29;36.92;96823.22;4993819;28;20030;-65
2022/05/01 10:57:32;;;;;;;8.35;1.88;;;;;;;19.22;39.15;96821.97;4993746;28;20444;-63
2022/05/01 11:00:10;;;;;;;13.70;7.10;;;;;;;19.35;38.21;96820.16;4993897;28;20547;-63
2022/05/01 11:02:44;;;;;;;4.60;2.50;;;;;;;19.34;37.58;96818.47;4993720;28;20030;-63
2022/05/01 11:05:43;;;;;;;4.47;2.53;;;;;;;18.85;38.77;96825.31;4993549;28;20093;-64
2022/05/01 11:08:27;;;;;;;2.33;1.75;;;;;;;18.64;37.30;96818.69;4993486;28;20038;-64
2022/05/01 11:10:58;;;;;;;2.10;1.85;;;;;;;18.75;36.94;96811.84;4993759;28;20030;-63
2022/05/01 11:13:28;;;;;;;2.33;1.65;;;;;;;18.81;35.11;96808.75;4993719;28;20476;-63
2022/05/01 11:15:55;;;;;;;2.80;1.63;;;;;;;18.86;38.44;96805.78;4993536;28;20031;-64
2022/05/01 11:18:28;;;;;;;2.03;1.63;;;;;;;18.79;35.96;96803.53;4993225;28;20069;-65
2022/05/01 11:20:55;;;;;;;2.47;1.88;;;;;;;18.86;36.14;96801.34;4997008;28;20109;-65
2022/05/01 11:23:33;;;;;;;2.88;1.48;;;;;;;19.01;39.82;96796.81;4997574;28;20063;-64
2022/05/01 11:26:10;;;;;;;18.20;3.45;;;;;;;19.14;35.73;96790.69;4997561;28;20136;-62
2022/05/01 11:28:49;;;;;;;4.93;1.50;;;;;;;18.84;33.76;96797.94;4997618;28;20069;-65
2022/05/01 11:31:37;;;;;;;2.38;1.67;;;;;;;18.62;34.14;96788.81;4997447;28;20033;-62
2022/05/01 11:34:24;;;;;;;1.73;1.40;;;;;;;18.85;34.85;96790.84;4997486;28;20109;-62
2022/05/01 11:37:07;;;;;;;3.03;1.60;;;;;;;18.84;34.52;96784.69;4983323;28;20041;-62
2022/05/01 11:39:51;;;;;;;3.45;1.50;;;;;;;18.45;35.15;96784.63;4977797;28;20046;-59
2022/05/01 11:42:23;;;;;;;1.60;1.48;;;;;;;18.21;36.35;96784.44;4977244;28;20190;-61
2022/05/01 11:44:50;;;;;;;3.03;1.83;;;;;;;18.01;38.01;96792.69;4977596;28;20030;-59
2022/05/01 11:47:19;;;;;;;3.75;1.67;;;;;;;17.72;35.72;96787.47;4977608;28;20050;-58
2022/05/01 11:49:47;;;;;;;2.38;1.85;;;;;;;17.70;37.35;96788.50;4977677;28;20034;-59
2022/05/01 11:52:17;;;;;;;2.58;1.63;;;;;;;17.72;37.80;96792.75;4977649;28;20823;-60
2022/05/01 11:54:57;;;;;;;4.88;2.05;;;;;;;17.53;38.74;96785.13;4977473;28;20497;-59
2022/05/01 12:03:05;;;;;;;1.60;1.50;;;;;;;17.70;37.95;96784.06;4977724;28;20037;-60
2022/05/01 12:05:45;;;;;;;3.53;1.65;;;;;;;17.53;39.72;96782.47;4977372;28;20038;-61
2022/05/01 12:08:14;;;;;;;4.32;2.17;;;;;;;17.66;38.88;96786.06;4977306;28;20031;-60